sensor_id;sensor_type;location;lat;lon;timestamp;pressure;altitude;pressure_sealevel;temperature;humidity
49377;BME280;35253;34.688;33.040;2023-02-18T00:00:22;102385.25;;;10.81;100.00
49377;BME280;35253;34.688;33.040;2023-02-18T00:02:47;102382.41;;;10.86;100.00
49377;BME280;35253;34.688;33.040;2023-02-18T00:05:13;102380.59;;;10.88;100.00
49377;BME280;35253;34.688;33.040;2023-02-18T00:07:39;102386.00;;;10.85;100.00
49377;BME280;35253;34.688;33.040;2023-02-18T00:10:06;102374.69;;;10.78;100.00
49377;BME280;35253;34.688;33.040;2023-02-18T00:12:32;102388.94;;;10.77;100.00
49377;BME280;35253;34.688;33.040;2023-02-18T00:14:57;102375.28;;;10.60;100.00
49377;BME280;35253;34.688;33.040;2023-02-18T00:17:23;102371.47;;;10.67;100.00
49377;BME280;35253;34.688;33.040;2023-02-18T00:19:48;102371.28;;;10.46;100.00
49377;BME280;35253;34.688;33.040;2023-02-18T00:22:14;102361.97;;;10.59;100.00
49377;BME280;35253;34.688;33.040;2023-02-18T00:24:39;102365.78;;;10.52;100.00
49377;BME280;35253;34.688;33.040;2023-02-18T00:27:05;102367.59;;;10.50;100.00
49377;BME280;35253;34.688;33.040;2023-02-18T00:29:31;102369.63;;;10.42;100.00
49377;BME280;35253;34.688;33.040;2023-02-18T00:31:56;102361.84;;;10.35;100.00
49377;BME280;35253;34.688;33.040;2023-02-18T00:34:22;102362.25;;;10.50;100.00
49377;BME280;35253;34.688;33.040;2023-02-18T00:36:47;102360.63;;;10.46;100.00
49377;BME280;35253;34.688;33.040;2023-02-18T00:39:12;102358.56;;;10.54;100.00
49377;BME280;35253;34.688;33.040;2023-02-18T00:41:38;102356.31;;;10.42;100.00
49377;BME280;35253;34.688;33.040;2023-02-18T00:44:04;102355.34;;;10.44;100.00
49377;BME280;35253;34.688;33.040;2023-02-18T00:46:29;102354.06;;;10.56;100.00
49377;BME280;35253;34.688;33.040;2023-02-18T00:48:55;102357.22;;;10.40;100.00
49377;BME280;35253;34.688;33.040;2023-02-18T00:51:21;102347.50;;;10.39;100.00
49377;BME280;35253;34.688;33.040;2023-02-18T00:53:46;102344.84;;;10.39;100.00
49377;BME280;35253;34.688;33.040;2023-02-18T00:56:12;102348.31;;;10.42;100.00
49377;BME280;35253;34.688;33.040;2023-02-18T00:58:37;102346.47;;;10.44;100.00
49377;BME280;35253;34.688;33.040;2023-02-18T01:01:03;102350.69;;;10.51;100.00
49377;BME280;35253;34.688;33.040;2023-02-18T01:03:29;102358.69;;;10.51;100.00
49377;BME280;35253;34.688;33.040;2023-02-18T01:05:55;102352.72;;;10.43;100.00
49377;BME280;35253;34.688;33.040;2023-02-18T01:08:20;102351.81;;;10.44;100.00
49377;BME280;35253;34.688;33.040;2023-02-18T01:10:46;102337.78;;;10.37;100.00
49377;BME280;35253;34.688;33.040;2023-02-18T01:13:13;102340.56;;;10.34;100.00
49377;BME280;35253;34.688;33.040;2023-02-18T01:15:39;102339.41;;;10.43;100.00
49377;BME280;35253;34.688;33.040;2023-02-18T01:18:04;102327.25;;;10.32;100.00
49377;BME280;35253;34.688;33.040;2023-02-18T01:20:31;102330.53;;;10.42;100.00
49377;BME280;35253;34.688;33.040;2023-02-18T01:22:57;102330.47;;;10.44;100.00
49377;BME280;35253;34.688;33.040;2023-02-18T01:25:22;102337.63;;;10.42;100.00
49377;BME280;35253;34.688;33.040;2023-02-18T01:27:48;102326.03;;;10.44;100.00
49377;BME280;35253;34.688;33.040;2023-02-18T01:30:14;102328.28;;;10.28;100.00
49377;BME280;35253;34.688;33.040;2023-02-18T01:32:40;102331.34;;;10.16;100.00
49377;BME280;35253;34.688;33.040;2023-02-18T01:35:06;102336.00;;;10.37;100.00
49377;BME280;35253;34.688;33.040;2023-02-18T01:37:32;102330.41;;;10.45;100.00
49377;BME280;35253;34.688;33.040;2023-02-18T01:39:57;102335.66;;;10.48;100.00
49377;BME280;35253;34.688;33.040;2023-02-18T01:42:24;102330.56;;;10.40;100.00
49377;BME280;35253;34.688;33.040;2023-02-18T01:44:50;102333.38;;;10.36;100.00
49377;BME280;35253;34.688;33.040;2023-02-18T01:47:15;102339.56;;;10.36;100.00
49377;BME280;35253;34.688;33.040;2023-02-18T01:49:41;102327.47;;;10.26;100.00
49377;BME280;35253;34.688;33.040;2023-02-18T01:52:14;102325.50;;;10.31;100.00
49377;BME280;35253;34.688;33.040;2023-02-18T01:54:40;102334.09;;;10.41;100.00
49377;BME280;35253;34.688;33.040;2023-02-18T01:57:11;102327.88;;;10.40;100.00
49377;BME280;35253;34.688;33.040;2023-02-18T01:59:39;102332.13;;;10.48;100.00
49377;BME280;35253;34.688;33.040;2023-02-18T02:02:06;102323.41;;;10.43;100.00
49377;BME280;35253;34.688;33.040;2023-02-18T02:04:33;102328.75;;;10.41;100.00
49377;BME280;35253;34.688;33.040;2023-02-18T02:06:59;102321.53;;;10.45;100.00
49377;BME280;35253;34.688;33.040;2023-02-18T02:09:24;102316.94;;;10.50;100.00
49377;BME280;35253;34.688;33.040;2023-02-18T02:14:37;102314.78;;;10.34;100.00
49377;BME280;35253;34.688;33.040;2023-02-18T02:17:14;102318.34;;;10.33;100.00
49377;BME280;35253;34.688;33.040;2023-02-18T02:22:39;102313.00;;;10.35;100.00
49377;BME280;35253;34.688;33.040;2023-02-18T02:35:40;102314.22;;;10.23;100.00
49377;BME280;35253;34.688;33.040;2023-02-18T02:38:12;102311.28;;;10.32;100.00
49377;BME280;35253;34.688;33.040;2023-02-18T02:46:17;102316.31;;;10.42;100.00
49377;BME280;35253;34.688;33.040;2023-02-18T02:48:45;102315.25;;;10.47;100.00
49377;BME280;35253;34.688;33.040;2023-02-18T02:54:10;102311.78;;;10.17;100.00
49377;BME280;35253;34.688;33.040;2023-02-18T02:56:36;102315.59;;;10.07;100.00
49377;BME280;35253;34.688;33.040;2023-02-18T02:59:03;102318.91;;;10.17;100.00
49377;BME280;35253;34.688;33.040;2023-02-18T03:07:07;102317.72;;;9.96;100.00
49377;BME280;35253;34.688;33.040;2023-02-18T03:12:06;102322.81;;;10.04;100.00
49377;BME280;35253;34.688;33.040;2023-02-18T03:17:13;102319.44;;;9.99;100.00
49377;BME280;35253;34.688;33.040;2023-02-18T03:19:46;102322.09;;;9.99;100.00
49377;BME280;35253;34.688;33.040;2023-02-18T03:22:20;102330.38;;;9.88;100.00
49377;BME280;35253;34.688;33.040;2023-02-18T03:24:49;102321.66;;;9.83;100.00
49377;BME280;35253;34.688;33.040;2023-02-18T03:27:31;102326.66;;;9.95;100.00
49377;BME280;35253;34.688;33.040;2023-02-18T03:30:00;102330.13;;;9.97;100.00
49377;BME280;35253;34.688;33.040;2023-02-18T03:32:26;102324.66;;;10.02;100.00
49377;BME280;35253;34.688;33.040;2023-02-18T03:34:55;102327.25;;;10.05;100.00
49377;BME280;35253;34.688;33.040;2023-02-18T03:37:22;102334.50;;;10.00;100.00
49377;BME280;35253;34.688;33.040;2023-02-18T03:39:48;102331.78;;;10.01;100.00
49377;BME280;35253;34.688;33.040;2023-02-18T03:42:16;102329.94;;;10.03;100.00
49377;BME280;35253;34.688;33.040;2023-02-18T03:44:42;102338.84;;;10.02;100.00
49377;BME280;35253;34.688;33.040;2023-02-18T03:47:08;102337.31;;;9.95;100.00
49377;BME280;35253;34.688;33.040;2023-02-18T03:49:33;102335.16;;;10.06;100.00
49377;BME280;35253;34.688;33.040;2023-02-18T03:51:59;102336.94;;;10.07;100.00
49377;BME280;35253;34.688;33.040;2023-02-18T03:54:24;102331.50;;;10.10;100.00
49377;BME280;35253;34.688;33.040;2023-02-18T03:56:50;102335.03;;;10.11;100.00
49377;BME280;35253;34.688;33.040;2023-02-18T03:59:15;102334.94;;;10.14;100.00
49377;BME280;35253;34.688;33.040;2023-02-18T04:01:40;102335.81;;;10.14;100.00
49377;BME280;35253;34.688;33.040;2023-02-18T04:04:06;102340.41;;;10.09;100.00
49377;BME280;35253;34.688;33.040;2023-02-18T04:06:32;102341.41;;;10.05;100.00
49377;BME280;35253;34.688;33.040;2023-02-18T04:08:57;102349.91;;;10.19;100.00
49377;BME280;35253;34.688;33.040;2023-02-18T04:11:23;102343.06;;;10.09;100.00
49377;BME280;35253;34.688;33.040;2023-02-18T04:13:48;102350.09;;;10.12;100.00
49377;BME280;35253;34.688;33.040;2023-02-18T04:16:13;102347.34;;;10.16;100.00
49377;BME280;35253;34.688;33.040;2023-02-18T04:18:39;102359.22;;;10.05;100.00
49377;BME280;35253;34.688;33.040;2023-02-18T04:21:04;102351.16;;;10.06;100.00
49377;BME280;35253;34.688;33.040;2023-02-18T04:23:30;102353.16;;;10.00;100.00
49377;BME280;35253;34.688;33.040;2023-02-18T04:25:55;102359.06;;;10.09;100.00
49377;BME280;35253;34.688;33.040;2023-02-18T04:28:21;102349.00;;;9.89;100.00
49377;BME280;35253;34.688;33.040;2023-02-18T04:30:47;102357.63;;;9.98;100.00
49377;BME280;35253;34.688;33.040;2023-02-18T04:33:12;102355.00;;;9.96;100.00
49377;BME280;35253;34.688;33.040;2023-02-18T04:35:38;102346.84;;;10.02;100.00
49377;BME280;35253;34.688;33.040;2023-02-18T04:38:05;102354.81;;;10.04;100.00
49377;BME280;35253;34.688;33.040;2023-02-18T04:40:31;102356.88;;;9.94;100.00
49377;BME280;35253;34.688;33.040;2023-02-18T04:42:57;102361.91;;;10.03;100.00
49377;BME280;35253;34.688;33.040;2023-02-18T04:45:23;102354.06;;;9.99;100.00
49377;BME280;35253;34.688;33.040;2023-02-18T04:47:48;102360.03;;;10.07;100.00
49377;BME280;35253;34.688;33.040;2023-02-18T04:50:14;102353.53;;;10.17;100.00
49377;BME280;35253;34.688;33.040;2023-02-18T04:52:39;102365.00;;;10.19;100.00
49377;BME280;35253;34.688;33.040;2023-02-18T04:55:05;102366.63;;;10.24;100.00
49377;BME280;35253;34.688;33.040;2023-02-18T04:57:30;102365.50;;;10.02;100.00
49377;BME280;35253;34.688;33.040;2023-02-18T04:59:56;102359.75;;;10.17;100.00
49377;BME280;35253;34.688;33.040;2023-02-18T05:02:21;102368.66;;;10.16;100.00
49377;BME280;35253;34.688;33.040;2023-02-18T05:04:47;102366.63;;;10.24;100.00
49377;BME280;35253;34.688;33.040;2023-02-18T05:07:12;102369.84;;;10.35;100.00
49377;BME280;35253;34.688;33.040;2023-02-18T05:09:38;102379.84;;;10.27;100.00
49377;BME280;35253;34.688;33.040;2023-02-18T05:12:03;102382.16;;;10.39;100.00
49377;BME280;35253;34.688;33.040;2023-02-18T05:14:29;102374.16;;;10.39;100.00
49377;BME280;35253;34.688;33.040;2023-02-18T05:16:54;102383.88;;;10.40;100.00
49377;BME280;35253;34.688;33.040;2023-02-18T05:19:20;102382.06;;;10.43;100.00
49377;BME280;35253;34.688;33.040;2023-02-18T05:21:45;102386.19;;;10.53;100.00
49377;BME280;35253;34.688;33.040;2023-02-18T05:24:11;102387.09;;;10.52;100.00
49377;BME280;35253;34.688;33.040;2023-02-18T05:26:36;102380.03;;;10.51;100.00
49377;BME280;35253;34.688;33.040;2023-02-18T05:29:02;102380.59;;;10.60;100.00
49377;BME280;35253;34.688;33.040;2023-02-18T05:31:27;102392.03;;;10.64;100.00
49377;BME280;35253;34.688;33.040;2023-02-18T05:33:53;102396.09;;;10.75;100.00
49377;BME280;35253;34.688;33.040;2023-02-18T05:36:18;102386.25;;;10.77;100.00
49377;BME280;35253;34.688;33.040;2023-02-18T05:38:44;102383.25;;;10.88;100.00
49377;BME280;35253;34.688;33.040;2023-02-18T05:41:09;102388.25;;;10.97;100.00
49377;BME280;35253;34.688;33.040;2023-02-18T05:43:35;102396.94;;;11.04;100.00
49377;BME280;35253;34.688;33.040;2023-02-18T05:46:20;102396.91;;;11.05;100.00
49377;BME280;35253;34.688;33.040;2023-02-18T05:48:46;102382.56;;;11.08;100.00
49377;BME280;35253;34.688;33.040;2023-02-18T05:51:11;102386.75;;;11.15;100.00
49377;BME280;35253;34.688;33.040;2023-02-18T05:53:37;102388.91;;;11.30;100.00
49377;BME280;35253;34.688;33.040;2023-02-18T05:56:02;102391.22;;;11.41;100.00
49377;BME280;35253;34.688;33.040;2023-02-18T05:58:27;102383.13;;;11.42;100.00
49377;BME280;35253;34.688;33.040;2023-02-18T06:00:53;102388.91;;;11.55;100.00
49377;BME280;35253;34.688;33.040;2023-02-18T06:03:18;102388.66;;;11.62;100.00
49377;BME280;35253;34.688;33.040;2023-02-18T06:05:44;102398.97;;;11.73;100.00
49377;BME280;35253;34.688;33.040;2023-02-18T06:08:09;102403.84;;;11.85;100.00
49377;BME280;35253;34.688;33.040;2023-02-18T06:10:35;102398.25;;;11.93;100.00
49377;BME280;35253;34.688;33.040;2023-02-18T06:13:00;102400.50;;;12.03;100.00
49377;BME280;35253;34.688;33.040;2023-02-18T06:15:26;102413.41;;;12.15;100.00
49377;BME280;35253;34.688;33.040;2023-02-18T06:17:52;102409.44;;;12.26;100.00
49377;BME280;35253;34.688;33.040;2023-02-18T06:20:17;102407.34;;;12.34;100.00
49377;BME280;35253;34.688;33.040;2023-02-18T06:22:43;102410.22;;;12.51;100.00
49377;BME280;35253;34.688;33.040;2023-02-18T06:25:08;102416.03;;;12.62;100.00
49377;BME280;35253;34.688;33.040;2023-02-18T06:27:33;102415.78;;;12.68;100.00
49377;BME280;35253;34.688;33.040;2023-02-18T06:29:59;102413.75;;;12.75;100.00
49377;BME280;35253;34.688;33.040;2023-02-18T06:32:24;102420.34;;;12.66;100.00
49377;BME280;35253;34.688;33.040;2023-02-18T06:34:50;102418.59;;;12.65;100.00
49377;BME280;35253;34.688;33.040;2023-02-18T06:37:15;102418.53;;;12.88;100.00
49377;BME280;35253;34.688;33.040;2023-02-18T06:39:40;102414.75;;;12.94;100.00
49377;BME280;35253;34.688;33.040;2023-02-18T06:42:06;102415.47;;;12.97;100.00
49377;BME280;35253;34.688;33.040;2023-02-18T06:44:31;102411.69;;;13.03;100.00
49377;BME280;35253;34.688;33.040;2023-02-18T06:46:57;102409.84;;;13.03;100.00
49377;BME280;35253;34.688;33.040;2023-02-18T06:49:22;102418.50;;;13.12;100.00
49377;BME280;35253;34.688;33.040;2023-02-18T06:51:48;102414.38;;;13.25;100.00
49377;BME280;35253;34.688;33.040;2023-02-18T06:54:13;102417.84;;;13.27;100.00
49377;BME280;35253;34.688;33.040;2023-02-18T06:56:39;102408.63;;;13.34;100.00
49377;BME280;35253;34.688;33.040;2023-02-18T06:59:04;102423.81;;;13.33;100.00
49377;BME280;35253;34.688;33.040;2023-02-18T07:01:29;102415.19;;;13.47;100.00
49377;BME280;35253;34.688;33.040;2023-02-18T07:03:55;102424.00;;;13.49;100.00
49377;BME280;35253;34.688;33.040;2023-02-18T07:06:20;102423.88;;;13.52;100.00
49377;BME280;35253;34.688;33.040;2023-02-18T07:08:46;102425.75;;;13.50;100.00
49377;BME280;35253;34.688;33.040;2023-02-18T07:11:11;102421.88;;;13.57;100.00
49377;BME280;35253;34.688;33.040;2023-02-18T07:13:37;102420.66;;;13.44;100.00
49377;BME280;35253;34.688;33.040;2023-02-18T07:16:02;102425.91;;;13.47;100.00
49377;BME280;35253;34.688;33.040;2023-02-18T07:18:28;102421.75;;;13.60;100.00
49377;BME280;35253;34.688;33.040;2023-02-18T07:20:53;102427.22;;;13.57;100.00
49377;BME280;35253;34.688;33.040;2023-02-18T07:23:19;102423.63;;;13.58;100.00
49377;BME280;35253;34.688;33.040;2023-02-18T07:25:44;102423.47;;;13.61;100.00
49377;BME280;35253;34.688;33.040;2023-02-18T07:28:10;102425.84;;;13.69;100.00
49377;BME280;35253;34.688;33.040;2023-02-18T07:30:35;102434.53;;;13.74;100.00
49377;BME280;35253;34.688;33.040;2023-02-18T07:33:00;102424.78;;;13.91;100.00
49377;BME280;35253;34.688;33.040;2023-02-18T07:35:26;102422.41;;;13.85;100.00
49377;BME280;35253;34.688;33.040;2023-02-18T07:37:51;102419.81;;;14.03;100.00
49377;BME280;35253;34.688;33.040;2023-02-18T07:40:18;102414.66;;;13.98;100.00
49377;BME280;35253;34.688;33.040;2023-02-18T07:42:44;102414.72;;;13.96;100.00
49377;BME280;35253;34.688;33.040;2023-02-18T07:45:09;102417.13;;;14.03;100.00
49377;BME280;35253;34.688;33.040;2023-02-18T07:47:35;102407.34;;;14.02;100.00
49377;BME280;35253;34.688;33.040;2023-02-18T07:50:01;102407.19;;;14.05;100.00
49377;BME280;35253;34.688;33.040;2023-02-18T07:52:26;102416.75;;;13.91;100.00
49377;BME280;35253;34.688;33.040;2023-02-18T07:54:52;102410.22;;;13.97;100.00
49377;BME280;35253;34.688;33.040;2023-02-18T07:57:17;102408.84;;;13.88;100.00
49377;BME280;35253;34.688;33.040;2023-02-18T07:59:43;102401.03;;;14.03;100.00
49377;BME280;35253;34.688;33.040;2023-02-18T08:02:17;102407.06;;;14.08;100.00
49377;BME280;35253;34.688;33.040;2023-02-18T08:04:42;102402.72;;;14.24;100.00
49377;BME280;35253;34.688;33.040;2023-02-18T08:07:11;102404.59;;;14.22;100.00
49377;BME280;35253;34.688;33.040;2023-02-18T08:09:36;102406.22;;;14.26;100.00
49377;BME280;35253;34.688;33.040;2023-02-18T08:12:01;102411.34;;;14.12;100.00
49377;BME280;35253;34.688;33.040;2023-02-18T08:14:27;102406.03;;;14.10;100.00
49377;BME280;35253;34.688;33.040;2023-02-18T08:16:52;102400.53;;;14.13;100.00
49377;BME280;35253;34.688;33.040;2023-02-18T08:19:19;102401.25;;;13.98;100.00
49377;BME280;35253;34.688;33.040;2023-02-18T08:21:44;102395.59;;;14.04;100.00
49377;BME280;35253;34.688;33.040;2023-02-18T08:24:10;102391.19;;;14.22;100.00
49377;BME280;35253;34.688;33.040;2023-02-18T08:26:35;102392.03;;;14.42;100.00
49377;BME280;35253;34.688;33.040;2023-02-18T08:29:01;102386.72;;;14.41;100.00
49377;BME280;35253;34.688;33.040;2023-02-18T08:31:27;102397.78;;;14.33;100.00
49377;BME280;35253;34.688;33.040;2023-02-18T08:33:53;102394.53;;;14.27;100.00
49377;BME280;35253;34.688;33.040;2023-02-18T08:36:19;102394.78;;;14.41;100.00
49377;BME280;35253;34.688;33.040;2023-02-18T08:38:44;102395.63;;;14.60;100.00
49377;BME280;35253;34.688;33.040;2023-02-18T08:41:10;102388.81;;;14.53;100.00
49377;BME280;35253;34.688;33.040;2023-02-18T08:43:36;102384.84;;;14.43;100.00
49377;BME280;35253;34.688;33.040;2023-02-18T08:46:02;102381.78;;;14.51;100.00
49377;BME280;35253;34.688;33.040;2023-02-18T08:48:27;102374.16;;;14.60;100.00
49377;BME280;35253;34.688;33.040;2023-02-18T08:50:53;102377.50;;;14.65;100.00
49377;BME280;35253;34.688;33.040;2023-02-18T08:53:19;102380.19;;;14.65;100.00
49377;BME280;35253;34.688;33.040;2023-02-18T08:55:44;102373.56;;;14.72;100.00
49377;BME280;35253;34.688;33.040;2023-02-18T08:58:10;102368.91;;;14.76;100.00
49377;BME280;35253;34.688;33.040;2023-02-18T09:00:36;102369.94;;;14.73;100.00
49377;BME280;35253;34.688;33.040;2023-02-18T09:03:02;102363.09;;;14.66;100.00
49377;BME280;35253;34.688;33.040;2023-02-18T09:05:28;102359.38;;;14.52;100.00
49377;BME280;35253;34.688;33.040;2023-02-18T09:07:53;102359.03;;;14.76;100.00
49377;BME280;35253;34.688;33.040;2023-02-18T09:10:19;102360.69;;;14.79;100.00
49377;BME280;35253;34.688;33.040;2023-02-18T09:12:44;102358.41;;;14.88;100.00
49377;BME280;35253;34.688;33.040;2023-02-18T09:15:10;102352.25;;;14.69;100.00
49377;BME280;35253;34.688;33.040;2023-02-18T09:17:35;102354.06;;;14.86;100.00
49377;BME280;35253;34.688;33.040;2023-02-18T09:20:01;102345.63;;;14.94;100.00
49377;BME280;35253;34.688;33.040;2023-02-18T09:22:26;102350.81;;;14.97;100.00
49377;BME280;35253;34.688;33.040;2023-02-18T09:24:51;102345.63;;;14.94;100.00
49377;BME280;35253;34.688;33.040;2023-02-18T09:27:17;102340.72;;;15.02;100.00
49377;BME280;35253;34.688;33.040;2023-02-18T09:29:42;102338.50;;;14.93;100.00
49377;BME280;35253;34.688;33.040;2023-02-18T09:32:08;102339.06;;;14.82;100.00
49377;BME280;35253;34.688;33.040;2023-02-18T09:34:35;102338.38;;;14.96;100.00
49377;BME280;35253;34.688;33.040;2023-02-18T09:37:01;102328.81;;;15.07;100.00
49377;BME280;35253;34.688;33.040;2023-02-18T09:39:26;102328.72;;;15.09;100.00
49377;BME280;35253;34.688;33.040;2023-02-18T09:41:53;102322.84;;;15.01;100.00
49377;BME280;35253;34.688;33.040;2023-02-18T09:44:24;102323.25;;;14.93;100.00
49377;BME280;35253;34.688;33.040;2023-02-18T09:46:53;102317.34;;;14.86;100.00
49377;BME280;35253;34.688;33.040;2023-02-18T09:49:21;102311.03;;;15.05;100.00
49377;BME280;35253;34.688;33.040;2023-02-18T09:51:49;102302.22;;;15.18;100.00
49377;BME280;35253;34.688;33.040;2023-02-18T09:54:15;102306.09;;;15.30;100.00
49377;BME280;35253;34.688;33.040;2023-02-18T09:56:41;102296.44;;;15.43;100.00
49377;BME280;35253;34.688;33.040;2023-02-18T09:59:09;102297.13;;;15.47;100.00
49377;BME280;35253;34.688;33.040;2023-02-18T10:01:37;102288.19;;;15.13;100.00
49377;BME280;35253;34.688;33.040;2023-02-18T10:04:15;102278.81;;;15.38;100.00
49377;BME280;35253;34.688;33.040;2023-02-18T10:06:42;102278.16;;;15.50;100.00
49377;BME280;35253;34.688;33.040;2023-02-18T10:09:19;102281.25;;;15.59;100.00
49377;BME280;35253;34.688;33.040;2023-02-18T10:11:55;102272.06;;;15.63;100.00
49377;BME280;35253;34.688;33.040;2023-02-18T10:14:22;102260.78;;;15.72;100.00
49377;BME280;35253;34.688;33.040;2023-02-18T10:16:48;102258.72;;;15.62;100.00
49377;BME280;35253;34.688;33.040;2023-02-18T10:19:34;102257.16;;;15.73;100.00
49377;BME280;35253;34.688;33.040;2023-02-18T10:22:03;102260.97;;;15.69;100.00
49377;BME280;35253;34.688;33.040;2023-02-18T10:26:55;102242.50;;;15.46;100.00
49377;BME280;35253;34.688;33.040;2023-02-18T10:29:21;102233.72;;;15.75;100.00
49377;BME280;35253;34.688;33.040;2023-02-18T10:31:58;102229.84;;;15.97;100.00
49377;BME280;35253;34.688;33.040;2023-02-18T10:34:41;102231.13;;;16.21;100.00
49377;BME280;35253;34.688;33.040;2023-02-18T10:39:38;102225.34;;;16.43;100.00
49377;BME280;35253;34.688;33.040;2023-02-18T10:49:57;102224.53;;;16.56;100.00
49377;BME280;35253;34.688;33.040;2023-02-18T10:52:22;102223.72;;;16.54;100.00
49377;BME280;35253;34.688;33.040;2023-02-18T10:57:24;102212.09;;;16.70;100.00
49377;BME280;35253;34.688;33.040;2023-02-18T11:02:35;102209.09;;;17.18;100.00
49377;BME280;35253;34.688;33.040;2023-02-18T11:05:04;102209.88;;;17.63;100.00
49377;BME280;35253;34.688;33.040;2023-02-18T11:07:31;102214.50;;;16.74;100.00
49377;BME280;35253;34.688;33.040;2023-02-18T11:09:59;102214.22;;;16.79;100.00
49377;BME280;35253;34.688;33.040;2023-02-18T11:12:44;102209.84;;;17.06;100.00
49377;BME280;35253;34.688;33.040;2023-02-18T11:17:42;102211.13;;;18.52;100.00
49377;BME280;35253;34.688;33.040;2023-02-18T11:20:41;102206.72;;;17.83;100.00
49377;BME280;35253;34.688;33.040;2023-02-18T11:25:35;102202.03;;;17.30;100.00
49377;BME280;35253;34.688;33.040;2023-02-18T11:28:02;102206.38;;;17.61;100.00
49377;BME280;35253;34.688;33.040;2023-02-18T11:30:32;102205.44;;;17.62;100.00
49377;BME280;35253;34.688;33.040;2023-02-18T11:33:03;102209.09;;;18.28;100.00
49377;BME280;35253;34.688;33.040;2023-02-18T11:35:31;102210.66;;;18.97;100.00
49377;BME280;35253;34.688;33.040;2023-02-18T11:37:58;102207.19;;;18.43;100.00
49377;BME280;35253;34.688;33.040;2023-02-18T11:40:25;102198.88;;;18.98;100.00
49377;BME280;35253;34.688;33.040;2023-02-18T11:43:01;102198.03;;;18.98;100.00
49377;BME280;35253;34.688;33.040;2023-02-18T11:45:27;102196.47;;;18.56;100.00
49377;BME280;35253;34.688;33.040;2023-02-18T11:50:37;102190.13;;;18.82;100.00
49377;BME280;35253;34.688;33.040;2023-02-18T11:53:18;102188.88;;;19.98;97.09
49377;BME280;35253;34.688;33.040;2023-02-18T11:55:52;102183.53;;;18.73;100.00
49377;BME280;35253;34.688;33.040;2023-02-18T11:58:18;102185.88;;;19.54;97.05
49377;BME280;35253;34.688;33.040;2023-02-18T12:00:44;102185.50;;;20.07;92.41
49377;BME280;35253;34.688;33.040;2023-02-18T12:05:51;102182.25;;;21.07;85.04
49377;BME280;35253;34.688;33.040;2023-02-18T12:10:46;102183.38;;;21.71;82.69
49377;BME280;35253;34.688;33.040;2023-02-18T12:13:26;102177.19;;;21.80;78.27
49377;BME280;35253;34.688;33.040;2023-02-18T12:19:03;102176.44;;;21.89;79.31
49377;BME280;35253;34.688;33.040;2023-02-18T12:26:31;102165.88;;;20.97;78.23
49377;BME280;35253;34.688;33.040;2023-02-18T12:31:41;102183.63;;;21.68;76.89
49377;BME280;35253;34.688;33.040;2023-02-18T12:46:39;102180.44;;;21.30;80.41
49377;BME280;35253;34.688;33.040;2023-02-18T12:49:14;102168.88;;;21.28;80.10
49377;BME280;35253;34.688;33.040;2023-02-18T12:56:58;102170.03;;;20.20;85.19
49377;BME280;35253;34.688;33.040;2023-02-18T13:02:08;102178.88;;;20.70;81.96
49377;BME280;35253;34.688;33.040;2023-02-18T13:04:52;102167.41;;;20.66;85.37
49377;BME280;35253;34.688;33.040;2023-02-18T13:14:49;102165.31;;;20.81;85.68
49377;BME280;35253;34.688;33.040;2023-02-18T13:17:21;102169.66;;;20.84;87.91
49377;BME280;35253;34.688;33.040;2023-02-18T13:19:53;102169.97;;;20.68;87.98
49377;BME280;35253;34.688;33.040;2023-02-18T13:22:20;102181.75;;;19.61;94.35
49377;BME280;35253;34.688;33.040;2023-02-18T13:24:47;102164.38;;;19.02;100.00
49377;BME280;35253;34.688;33.040;2023-02-18T13:27:26;102179.34;;;18.42;100.00
49377;BME280;35253;34.688;33.040;2023-02-18T13:30:13;102176.50;;;18.44;100.00
49377;BME280;35253;34.688;33.040;2023-02-18T13:32:48;102181.88;;;17.78;100.00
49377;BME280;35253;34.688;33.040;2023-02-18T13:35:20;102174.97;;;18.00;100.00
49377;BME280;35253;34.688;33.040;2023-02-18T13:37:57;102171.34;;;17.18;100.00
49377;BME280;35253;34.688;33.040;2023-02-18T13:40:28;102182.78;;;17.36;100.00
49377;BME280;35253;34.688;33.040;2023-02-18T13:43:15;102166.91;;;17.31;100.00
49377;BME280;35253;34.688;33.040;2023-02-18T13:45:40;102169.41;;;16.92;100.00
49377;BME280;35253;34.688;33.040;2023-02-18T13:48:20;102161.25;;;16.93;100.00
49377;BME280;35253;34.688;33.040;2023-02-18T13:50:46;102169.03;;;17.12;100.00
49377;BME280;35253;34.688;33.040;2023-02-18T13:53:18;102179.06;;;17.10;100.00
49377;BME280;35253;34.688;33.040;2023-02-18T13:56:01;102165.84;;;17.34;100.00
49377;BME280;35253;34.688;33.040;2023-02-18T13:58:29;102179.03;;;17.38;100.00
49377;BME280;35253;34.688;33.040;2023-02-18T14:00:59;102166.78;;;18.02;100.00
49377;BME280;35253;34.688;33.040;2023-02-18T14:05:54;102163.03;;;17.49;100.00
49377;BME280;35253;34.688;33.040;2023-02-18T14:08:35;102162.22;;;17.06;100.00
49377;BME280;35253;34.688;33.040;2023-02-18T14:16:05;102157.47;;;16.96;100.00
49377;BME280;35253;34.688;33.040;2023-02-18T14:18:32;102154.31;;;17.03;100.00
49377;BME280;35253;34.688;33.040;2023-02-18T14:26:08;102163.00;;;16.35;100.00
49377;BME280;35253;34.688;33.040;2023-02-18T14:33:39;102154.41;;;16.28;100.00